sensor_id;sensor_type;location;lat;lon;timestamp;P1;durP1;ratioP1;P2;durP2;ratioP2
16994;SDS011;8614;48.522;9.206;2023-10-09T00:02:23;15.87;;;8.27;;
16994;SDS011;8614;48.522;9.206;2023-10-09T00:04:51;12.90;;;7.93;;
16994;SDS011;8614;48.522;9.206;2023-10-09T00:07:19;14.10;;;7.40;;
16994;SDS011;8614;48.522;9.206;2023-10-09T00:09:49;14.73;;;7.83;;
16994;SDS011;8614;48.522;9.206;2023-10-09T00:12:16;14.70;;;8.20;;
16994;SDS011;8614;48.522;9.206;2023-10-09T00:14:47;17.57;;;8.97;;
16994;SDS011;8614;48.522;9.206;2023-10-09T00:17:16;16.53;;;8.03;;
16994;SDS011;8614;48.522;9.206;2023-10-09T00:19:49;13.60;;;7.17;;
16994;SDS011;8614;48.522;9.206;2023-10-09T00:22:21;14.20;;;8.73;;
16994;SDS011;8614;48.522;9.206;2023-10-09T00:24:54;20.03;;;8.23;;
16994;SDS011;8614;48.522;9.206;2023-10-09T00:27:49;12.70;;;6.30;;
16994;SDS011;8614;48.522;9.206;2023-10-09T00:30:17;13.50;;;8.13;;
16994;SDS011;8614;48.522;9.206;2023-10-09T00:32:46;13.20;;;8.87;;
16994;SDS011;8614;48.522;9.206;2023-10-09T00:35:24;15.13;;;8.60;;
16994;SDS011;8614;48.522;9.206;2023-10-09T00:38:07;12.07;;;8.27;;
16994;SDS011;8614;48.522;9.206;2023-10-09T00:40:41;15.77;;;8.33;;
16994;SDS011;8614;48.522;9.206;2023-10-09T00:43:13;14.73;;;8.33;;
16994;SDS011;8614;48.522;9.206;2023-10-09T00:45:40;15.27;;;8.47;;
16994;SDS011;8614;48.522;9.206;2023-10-09T00:48:09;13.17;;;7.27;;
16994;SDS011;8614;48.522;9.206;2023-10-09T00:50:40;13.20;;;6.90;;
16994;SDS011;8614;48.522;9.206;2023-10-09T00:53:17;15.00;;;6.53;;
16994;SDS011;8614;48.522;9.206;2023-10-09T00:55:56;21.57;;;9.33;;
16994;SDS011;8614;48.522;9.206;2023-10-09T00:58:30;14.53;;;8.37;;
16994;SDS011;8614;48.522;9.206;2023-10-09T01:01:00;14.03;;;8.20;;
16994;SDS011;8614;48.522;9.206;2023-10-09T01:03:29;13.07;;;8.43;;
16994;SDS011;8614;48.522;9.206;2023-10-09T01:05:59;13.27;;;8.03;;
16994;SDS011;8614;48.522;9.206;2023-10-09T01:08:41;16.70;;;5.63;;
16994;SDS011;8614;48.522;9.206;2023-10-09T01:11:12;13.67;;;6.37;;
16994;SDS011;8614;48.522;9.206;2023-10-09T01:13:45;12.37;;;6.10;;
16994;SDS011;8614;48.522;9.206;2023-10-09T01:16:19;17.73;;;6.30;;
16994;SDS011;8614;48.522;9.206;2023-10-09T01:18:48;12.90;;;6.47;;
16994;SDS011;8614;48.522;9.206;2023-10-09T01:21:16;14.77;;;6.13;;
16994;SDS011;8614;48.522;9.206;2023-10-09T01:23:45;11.40;;;5.77;;
16994;SDS011;8614;48.522;9.206;2023-10-09T01:26:28;14.57;;;5.60;;
16994;SDS011;8614;48.522;9.206;2023-10-09T01:28:59;17.17;;;6.50;;
16994;SDS011;8614;48.522;9.206;2023-10-09T01:31:27;14.93;;;8.23;;
16994;SDS011;8614;48.522;9.206;2023-10-09T01:33:59;13.37;;;7.23;;
16994;SDS011;8614;48.522;9.206;2023-10-09T01:36:34;8.53;;;6.73;;
16994;SDS011;8614;48.522;9.206;2023-10-09T01:39:06;12.63;;;7.37;;
16994;SDS011;8614;48.522;9.206;2023-10-09T01:41:35;12.27;;;7.00;;
16994;SDS011;8614;48.522;9.206;2023-10-09T01:44:12;9.60;;;6.37;;
16994;SDS011;8614;48.522;9.206;2023-10-09T01:46:41;9.63;;;6.17;;
16994;SDS011;8614;48.522;9.206;2023-10-09T01:49:09;12.27;;;6.67;;
16994;SDS011;8614;48.522;9.206;2023-10-09T01:51:46;12.33;;;7.47;;
16994;SDS011;8614;48.522;9.206;2023-10-09T01:54:16;16.97;;;8.23;;
16994;SDS011;8614;48.522;9.206;2023-10-09T01:56:58;14.80;;;7.27;;
16994;SDS011;8614;48.522;9.206;2023-10-09T01:59:30;16.10;;;7.83;;
16994;SDS011;8614;48.522;9.206;2023-10-09T02:01:58;14.87;;;6.77;;
16994;SDS011;8614;48.522;9.206;2023-10-09T02:04:26;21.20;;;7.33;;
16994;SDS011;8614;48.522;9.206;2023-10-09T02:06:54;16.83;;;7.03;;
16994;SDS011;8614;48.522;9.206;2023-10-09T02:09:22;16.07;;;7.50;;
16994;SDS011;8614;48.522;9.206;2023-10-09T02:11:56;13.83;;;7.57;;
16994;SDS011;8614;48.522;9.206;2023-10-09T02:14:22;14.27;;;8.10;;
16994;SDS011;8614;48.522;9.206;2023-10-09T02:16:50;14.20;;;8.10;;
16994;SDS011;8614;48.522;9.206;2023-10-09T02:19:33;13.23;;;8.20;;
16994;SDS011;8614;48.522;9.206;2023-10-09T02:22:00;13.10;;;7.07;;
16994;SDS011;8614;48.522;9.206;2023-10-09T02:24:39;14.13;;;7.17;;
16994;SDS011;8614;48.522;9.206;2023-10-09T02:27:17;19.57;;;7.23;;
16994;SDS011;8614;48.522;9.206;2023-10-09T02:30:14;16.53;;;7.17;;
16994;SDS011;8614;48.522;9.206;2023-10-09T02:32:44;20.43;;;7.00;;
16994;SDS011;8614;48.522;9.206;2023-10-09T02:35:14;14.10;;;6.93;;
16994;SDS011;8614;48.522;9.206;2023-10-09T02:37:56;15.00;;;6.37;;
16994;SDS011;8614;48.522;9.206;2023-10-09T02:40:26;15.10;;;5.93;;
16994;SDS011;8614;48.522;9.206;2023-10-09T02:42:57;15.63;;;5.93;;
16994;SDS011;8614;48.522;9.206;2023-10-09T02:45:25;13.23;;;5.80;;
16994;SDS011;8614;48.522;9.206;2023-10-09T02:48:04;15.07;;;6.63;;
16994;SDS011;8614;48.522;9.206;2023-10-09T02:50:36;16.83;;;6.17;;
16994;SDS011;8614;48.522;9.206;2023-10-09T02:53:03;14.07;;;5.93;;
16994;SDS011;8614;48.522;9.206;2023-10-09T02:55:35;12.03;;;5.13;;
16994;SDS011;8614;48.522;9.206;2023-10-09T02:58:04;10.73;;;5.20;;
16994;SDS011;8614;48.522;9.206;2023-10-09T03:00:34;8.93;;;5.40;;
16994;SDS011;8614;48.522;9.206;2023-10-09T03:03:02;10.13;;;4.87;;
16994;SDS011;8614;48.522;9.206;2023-10-09T03:05:31;11.90;;;5.23;;
16994;SDS011;8614;48.522;9.206;2023-10-09T03:07:58;13.20;;;5.60;;
16994;SDS011;8614;48.522;9.206;2023-10-09T03:10:27;14.97;;;4.97;;
16994;SDS011;8614;48.522;9.206;2023-10-09T03:12:54;9.03;;;4.53;;
16994;SDS011;8614;48.522;9.206;2023-10-09T03:15:21;11.93;;;5.00;;
16994;SDS011;8614;48.522;9.206;2023-10-09T03:17:50;10.70;;;4.83;;
16994;SDS011;8614;48.522;9.206;2023-10-09T03:20:16;11.43;;;5.33;;
16994;SDS011;8614;48.522;9.206;2023-10-09T03:22:45;15.27;;;5.53;;
16994;SDS011;8614;48.522;9.206;2023-10-09T03:25:13;17.43;;;6.97;;
16994;SDS011;8614;48.522;9.206;2023-10-09T03:27:42;13.57;;;5.50;;
16994;SDS011;8614;48.522;9.206;2023-10-09T03:30:12;20.33;;;6.80;;
16994;SDS011;8614;48.522;9.206;2023-10-09T03:32:43;16.37;;;6.13;;
16994;SDS011;8614;48.522;9.206;2023-10-09T03:35:16;12.50;;;6.10;;
16994;SDS011;8614;48.522;9.206;2023-10-09T03:37:50;15.97;;;6.07;;
16994;SDS011;8614;48.522;9.206;2023-10-09T03:40:22;18.27;;;6.83;;
16994;SDS011;8614;48.522;9.206;2023-10-09T03:42:50;16.63;;;5.60;;
16994;SDS011;8614;48.522;9.206;2023-10-09T03:45:18;11.93;;;6.90;;
16994;SDS011;8614;48.522;9.206;2023-10-09T03:47:53;15.87;;;8.63;;
16994;SDS011;8614;48.522;9.206;2023-10-09T03:50:29;16.13;;;7.77;;
16994;SDS011;8614;48.522;9.206;2023-10-09T03:53:02;19.83;;;9.37;;
16994;SDS011;8614;48.522;9.206;2023-10-09T03:55:34;20.57;;;8.43;;
16994;SDS011;8614;48.522;9.206;2023-10-09T03:58:03;17.03;;;8.90;;
16994;SDS011;8614;48.522;9.206;2023-10-09T04:00:31;19.60;;;8.60;;
16994;SDS011;8614;48.522;9.206;2023-10-09T04:03:06;20.07;;;9.27;;
16994;SDS011;8614;48.522;9.206;2023-10-09T04:05:38;17.43;;;9.17;;
16994;SDS011;8614;48.522;9.206;2023-10-09T04:08:07;14.53;;;6.47;;
16994;SDS011;8614;48.522;9.206;2023-10-09T04:10:54;20.50;;;6.90;;
16994;SDS011;8614;48.522;9.206;2023-10-09T04:13:26;16.30;;;6.70;;
16994;SDS011;8614;48.522;9.206;2023-10-09T04:15:58;20.67;;;6.90;;
16994;SDS011;8614;48.522;9.206;2023-10-09T04:18:34;20.03;;;6.67;;
16994;SDS011;8614;48.522;9.206;2023-10-09T04:21:05;16.77;;;6.70;;
16994;SDS011;8614;48.522;9.206;2023-10-09T04:23:43;12.17;;;5.77;;
16994;SDS011;8614;48.522;9.206;2023-10-09T04:26:34;17.37;;;6.27;;
16994;SDS011;8614;48.522;9.206;2023-10-09T04:29:02;20.17;;;6.70;;
16994;SDS011;8614;48.522;9.206;2023-10-09T04:31:30;13.40;;;6.37;;
16994;SDS011;8614;48.522;9.206;2023-10-09T04:34:02;12.03;;;5.63;;
16994;SDS011;8614;48.522;9.206;2023-10-09T04:36:50;16.37;;;6.77;;
16994;SDS011;8614;48.522;9.206;2023-10-09T04:39:22;14.93;;;7.50;;
16994;SDS011;8614;48.522;9.206;2023-10-09T04:42:11;18.27;;;9.80;;
16994;SDS011;8614;48.522;9.206;2023-10-09T04:44:56;16.73;;;6.20;;
16994;SDS011;8614;48.522;9.206;2023-10-09T04:47:45;12.60;;;6.63;;
16994;SDS011;8614;48.522;9.206;2023-10-09T04:50:23;17.87;;;11.10;;
16994;SDS011;8614;48.522;9.206;2023-10-09T04:53:15;24.40;;;10.23;;
16994;SDS011;8614;48.522;9.206;2023-10-09T04:55:50;18.13;;;9.90;;
16994;SDS011;8614;48.522;9.206;2023-10-09T04:58:29;19.60;;;10.87;;
16994;SDS011;8614;48.522;9.206;2023-10-09T05:00:58;23.90;;;10.13;;
16994;SDS011;8614;48.522;9.206;2023-10-09T05:03:38;16.97;;;9.63;;
16994;SDS011;8614;48.522;9.206;2023-10-09T05:06:09;18.60;;;10.47;;
16994;SDS011;8614;48.522;9.206;2023-10-09T05:08:55;15.17;;;9.00;;
16994;SDS011;8614;48.522;9.206;2023-10-09T05:11:34;11.07;;;9.07;;
16994;SDS011;8614;48.522;9.206;2023-10-09T05:14:18;15.10;;;8.93;;
16994;SDS011;8614;48.522;9.206;2023-10-09T05:16:52;12.73;;;8.73;;
16994;SDS011;8614;48.522;9.206;2023-10-09T05:19:26;12.10;;;8.33;;
16994;SDS011;8614;48.522;9.206;2023-10-09T05:22:07;11.03;;;8.90;;
16994;SDS011;8614;48.522;9.206;2023-10-09T05:24:44;12.47;;;9.70;;
16994;SDS011;8614;48.522;9.206;2023-10-09T05:27:12;12.70;;;9.57;;
16994;SDS011;8614;48.522;9.206;2023-10-09T05:29:44;15.37;;;9.27;;
16994;SDS011;8614;48.522;9.206;2023-10-09T05:32:38;12.70;;;9.00;;
16994;SDS011;8614;48.522;9.206;2023-10-09T05:35:13;15.47;;;9.03;;
16994;SDS011;8614;48.522;9.206;2023-10-09T05:37:41;18.17;;;8.20;;
16994;SDS011;8614;48.522;9.206;2023-10-09T05:40:12;13.63;;;8.90;;
16994;SDS011;8614;48.522;9.206;2023-10-09T05:42:49;16.33;;;7.50;;
16994;SDS011;8614;48.522;9.206;2023-10-09T05:45:24;13.43;;;6.30;;
16994;SDS011;8614;48.522;9.206;2023-10-09T05:48:10;14.70;;;7.13;;
16994;SDS011;8614;48.522;9.206;2023-10-09T05:51:06;14.70;;;6.27;;
16994;SDS011;8614;48.522;9.206;2023-10-09T05:53:59;20.97;;;8.00;;
16994;SDS011;8614;48.522;9.206;2023-10-09T05:56:38;25.27;;;10.57;;
16994;SDS011;8614;48.522;9.206;2023-10-09T05:59:22;28.90;;;10.97;;
16994;SDS011;8614;48.522;9.206;2023-10-09T06:02:06;24.73;;;10.70;;
16994;SDS011;8614;48.522;9.206;2023-10-09T06:04:51;21.27;;;9.07;;
16994;SDS011;8614;48.522;9.206;2023-10-09T06:07:20;16.83;;;10.70;;
16994;SDS011;8614;48.522;9.206;2023-10-09T06:10:06;13.53;;;9.13;;
16994;SDS011;8614;48.522;9.206;2023-10-09T06:12:44;14.83;;;8.30;;
16994;SDS011;8614;48.522;9.206;2023-10-09T06:15:21;15.93;;;7.80;;
16994;SDS011;8614;48.522;9.206;2023-10-09T06:18:15;15.50;;;9.87;;
16994;SDS011;8614;48.522;9.206;2023-10-09T06:20:57;18.70;;;9.97;;
16994;SDS011;8614;48.522;9.206;2023-10-09T06:23:35;16.87;;;10.30;;
16994;SDS011;8614;48.522;9.206;2023-10-09T06:26:34;15.03;;;10.30;;
16994;SDS011;8614;48.522;9.206;2023-10-09T06:29:02;17.40;;;10.30;;
16994;SDS011;8614;48.522;9.206;2023-10-09T06:31:41;11.27;;;8.10;;
16994;SDS011;8614;48.522;9.206;2023-10-09T06:34:24;9.50;;;5.50;;
16994;SDS011;8614;48.522;9.206;2023-10-09T06:37:00;10.90;;;5.60;;
16994;SDS011;8614;48.522;9.206;2023-10-09T06:39:34;7.13;;;6.40;;
16994;SDS011;8614;48.522;9.206;2023-10-09T06:42:15;10.17;;;6.50;;
16994;SDS011;8614;48.522;9.206;2023-10-09T06:45:11;8.17;;;4.97;;
16994;SDS011;8614;48.522;9.206;2023-10-09T06:47:46;8.37;;;7.57;;
16994;SDS011;8614;48.522;9.206;2023-10-09T06:50:21;8.43;;;6.83;;
16994;SDS011;8614;48.522;9.206;2023-10-09T06:53:11;7.97;;;5.57;;
16994;SDS011;8614;48.522;9.206;2023-10-09T06:55:50;8.10;;;4.73;;
16994;SDS011;8614;48.522;9.206;2023-10-09T06:58:17;9.37;;;7.40;;
16994;SDS011;8614;48.522;9.206;2023-10-09T07:00:50;9.10;;;6.47;;
16994;SDS011;8614;48.522;9.206;2023-10-09T07:03:36;9.07;;;6.63;;
16994;SDS011;8614;48.522;9.206;2023-10-09T07:06:17;6.20;;;4.63;;
16994;SDS011;8614;48.522;9.206;2023-10-09T07:08:57;7.73;;;4.70;;
16994;SDS011;8614;48.522;9.206;2023-10-09T07:11:41;9.47;;;7.10;;
16994;SDS011;8614;48.522;9.206;2023-10-09T07:14:28;8.17;;;3.80;;
16994;SDS011;8614;48.522;9.206;2023-10-09T07:17:20;9.27;;;4.67;;
16994;SDS011;8614;48.522;9.206;2023-10-09T07:19:52;11.83;;;8.57;;
16994;SDS011;8614;48.522;9.206;2023-10-09T07:22:38;9.77;;;8.77;;
16994;SDS011;8614;48.522;9.206;2023-10-09T07:25:21;8.70;;;3.83;;
16994;SDS011;8614;48.522;9.206;2023-10-09T07:28:09;8.17;;;3.90;;
16994;SDS011;8614;48.522;9.206;2023-10-09T07:31:01;5.67;;;3.70;;
16994;SDS011;8614;48.522;9.206;2023-10-09T07:33:29;6.17;;;3.73;;
16994;SDS011;8614;48.522;9.206;2023-10-09T07:36:16;5.67;;;3.73;;
16994;SDS011;8614;48.522;9.206;2023-10-09T07:38:54;8.57;;;3.77;;
16994;SDS011;8614;48.522;9.206;2023-10-09T07:41:29;5.83;;;5.10;;
16994;SDS011;8614;48.522;9.206;2023-10-09T07:44:03;9.50;;;8.63;;
16994;SDS011;8614;48.522;9.206;2023-10-09T07:46:45;9.37;;;8.47;;
16994;SDS011;8614;48.522;9.206;2023-10-09T07:49:40;9.87;;;8.43;;
16994;SDS011;8614;48.522;9.206;2023-10-09T07:52:05;8.67;;;7.70;;
16994;SDS011;8614;48.522;9.206;2023-10-09T07:54:32;9.23;;;7.87;;
16994;SDS011;8614;48.522;9.206;2023-10-09T07:57:01;6.83;;;4.07;;
16994;SDS011;8614;48.522;9.206;2023-10-09T07:59:40;8.03;;;4.07;;
16994;SDS011;8614;48.522;9.206;2023-10-09T08:02:19;6.93;;;6.33;;
16994;SDS011;8614;48.522;9.206;2023-10-09T08:04:58;8.63;;;6.90;;
16994;SDS011;8614;48.522;9.206;2023-10-09T08:07:31;7.13;;;6.00;;
16994;SDS011;8614;48.522;9.206;2023-10-09T08:10:02;7.57;;;5.60;;
16994;SDS011;8614;48.522;9.206;2023-10-09T08:12:47;6.93;;;6.10;;
16994;SDS011;8614;48.522;9.206;2023-10-09T08:15:46;8.63;;;5.93;;
16994;SDS011;8614;48.522;9.206;2023-10-09T08:18:17;8.23;;;5.90;;
16994;SDS011;8614;48.522;9.206;2023-10-09T08:20:54;6.27;;;5.67;;
16994;SDS011;8614;48.522;9.206;2023-10-09T08:23:38;9.53;;;6.27;;
16994;SDS011;8614;48.522;9.206;2023-10-09T08:26:15;7.53;;;6.07;;
16994;SDS011;8614;48.522;9.206;2023-10-09T08:28:54;8.97;;;6.77;;
16994;SDS011;8614;48.522;9.206;2023-10-09T08:31:40;7.90;;;6.73;;
16994;SDS011;8614;48.522;9.206;2023-10-09T08:34:11;7.77;;;3.40;;
16994;SDS011;8614;48.522;9.206;2023-10-09T08:36:52;8.77;;;7.73;;
16994;SDS011;8614;48.522;9.206;2023-10-09T08:39:19;8.37;;;4.63;;
16994;SDS011;8614;48.522;9.206;2023-10-09T08:41:53;7.13;;;6.47;;
16994;SDS011;8614;48.522;9.206;2023-10-09T08:44:23;7.63;;;3.70;;
16994;SDS011;8614;48.522;9.206;2023-10-09T08:46:53;6.60;;;5.30;;
16994;SDS011;8614;48.522;9.206;2023-10-09T08:49:20;8.40;;;6.13;;
16994;SDS011;8614;48.522;9.206;2023-10-09T08:51:47;9.03;;;4.23;;
16994;SDS011;8614;48.522;9.206;2023-10-09T08:54:15;11.27;;;8.80;;
16994;SDS011;8614;48.522;9.206;2023-10-09T08:56:42;8.50;;;6.30;;
16994;SDS011;8614;48.522;9.206;2023-10-09T08:59:15;11.30;;;9.30;;
16994;SDS011;8614;48.522;9.206;2023-10-09T09:01:44;9.37;;;8.40;;
16994;SDS011;8614;48.522;9.206;2023-10-09T09:07:05;10.20;;;4.83;;
16994;SDS011;8614;48.522;9.206;2023-10-09T09:09:34;9.33;;;4.43;;
16994;SDS011;8614;48.522;9.206;2023-10-09T09:12:00;6.83;;;4.73;;
16994;SDS011;8614;48.522;9.206;2023-10-09T09:14:37;8.53;;;4.50;;
16994;SDS011;8614;48.522;9.206;2023-10-09T09:17:04;9.63;;;4.40;;
16994;SDS011;8614;48.522;9.206;2023-10-09T09:19:36;9.00;;;5.60;;
16994;SDS011;8614;48.522;9.206;2023-10-09T09:22:03;8.20;;;3.70;;
16994;SDS011;8614;48.522;9.206;2023-10-09T09:24:39;9.53;;;7.70;;
16994;SDS011;8614;48.522;9.206;2023-10-09T09:27:11;9.70;;;8.70;;
16994;SDS011;8614;48.522;9.206;2023-10-09T09:29:44;8.50;;;6.60;;
16994;SDS011;8614;48.522;9.206;2023-10-09T09:32:25;7.10;;;6.40;;
16994;SDS011;8614;48.522;9.206;2023-10-09T09:34:55;9.20;;;7.97;;
16994;SDS011;8614;48.522;9.206;2023-10-09T09:37:25;8.83;;;7.20;;
16994;SDS011;8614;48.522;9.206;2023-10-09T09:39:56;10.20;;;7.43;;
16994;SDS011;8614;48.522;9.206;2023-10-09T09:42:26;8.20;;;7.40;;
16994;SDS011;8614;48.522;9.206;2023-10-09T09:44:56;7.90;;;7.13;;
16994;SDS011;8614;48.522;9.206;2023-10-09T09:47:26;13.33;;;9.53;;
16994;SDS011;8614;48.522;9.206;2023-10-09T09:49:54;13.50;;;9.30;;
16994;SDS011;8614;48.522;9.206;2023-10-09T09:52:26;8.17;;;4.73;;
16994;SDS011;8614;48.522;9.206;2023-10-09T09:54:56;10.47;;;4.73;;
16994;SDS011;8614;48.522;9.206;2023-10-09T09:57:23;10.93;;;7.43;;
16994;SDS011;8614;48.522;9.206;2023-10-09T09:59:54;6.13;;;4.13;;
16994;SDS011;8614;48.522;9.206;2023-10-09T10:02:24;11.50;;;9.37;;
16994;SDS011;8614;48.522;9.206;2023-10-09T10:04:58;10.50;;;8.70;;
16994;SDS011;8614;48.522;9.206;2023-10-09T10:07:30;10.27;;;4.50;;
16994;SDS011;8614;48.522;9.206;2023-10-09T10:13:04;11.50;;;5.00;;
16994;SDS011;8614;48.522;9.206;2023-10-09T10:18:51;11.50;;;8.20;;
16994;SDS011;8614;48.522;9.206;2023-10-09T10:21:24;10.73;;;8.33;;
16994;SDS011;8614;48.522;9.206;2023-10-09T10:27:25;12.60;;;4.80;;
16994;SDS011;8614;48.522;9.206;2023-10-09T10:33:02;9.63;;;4.00;;
16994;SDS011;8614;48.522;9.206;2023-10-09T10:35:41;7.77;;;4.67;;
16994;SDS011;8614;48.522;9.206;2023-10-09T10:38:28;8.87;;;4.13;;
16994;SDS011;8614;48.522;9.206;2023-10-09T10:41:15;12.47;;;7.83;;
16994;SDS011;8614;48.522;9.206;2023-10-09T10:43:44;13.33;;;4.67;;
16994;SDS011;8614;48.522;9.206;2023-10-09T10:46:20;10.90;;;4.53;;
16994;SDS011;8614;48.522;9.206;2023-10-09T10:48:58;12.33;;;7.67;;
16994;SDS011;8614;48.522;9.206;2023-10-09T10:51:35;17.10;;;4.13;;
16994;SDS011;8614;48.522;9.206;2023-10-09T10:54:04;8.23;;;4.40;;
16994;SDS011;8614;48.522;9.206;2023-10-09T10:56:54;13.63;;;6.77;;
16994;SDS011;8614;48.522;9.206;2023-10-09T10:59:24;15.60;;;8.70;;
16994;SDS011;8614;48.522;9.206;2023-10-09T11:01:51;12.97;;;9.63;;
16994;SDS011;8614;48.522;9.206;2023-10-09T11:04:19;14.23;;;9.63;;
16994;SDS011;8614;48.522;9.206;2023-10-09T11:07:04;14.73;;;9.40;;
16994;SDS011;8614;48.522;9.206;2023-10-09T11:09:45;14.83;;;5.90;;
16994;SDS011;8614;48.522;9.206;2023-10-09T11:12:27;11.43;;;4.67;;
16994;SDS011;8614;48.522;9.206;2023-10-09T11:15:05;15.10;;;6.17;;
16994;SDS011;8614;48.522;9.206;2023-10-09T11:17:34;18.27;;;8.27;;
16994;SDS011;8614;48.522;9.206;2023-10-09T11:20:04;15.50;;;8.83;;
16994;SDS011;8614;48.522;9.206;2023-10-09T11:22:46;17.03;;;6.33;;
16994;SDS011;8614;48.522;9.206;2023-10-09T11:25:32;14.47;;;9.17;;
16994;SDS011;8614;48.522;9.206;2023-10-09T11:27:59;13.00;;;5.93;;
16994;SDS011;8614;48.522;9.206;2023-10-09T11:30:42;15.30;;;9.03;;
16994;SDS011;8614;48.522;9.206;2023-10-09T11:33:11;14.33;;;8.70;;
16994;SDS011;8614;48.522;9.206;2023-10-09T11:35:39;16.67;;;9.07;;
16994;SDS011;8614;48.522;9.206;2023-10-09T11:38:08;15.60;;;9.53;;
16994;SDS011;8614;48.522;9.206;2023-10-09T11:40:46;11.70;;;8.60;;
16994;SDS011;8614;48.522;9.206;2023-10-09T11:43:29;15.00;;;8.33;;
16994;SDS011;8614;48.522;9.206;2023-10-09T11:46:17;16.40;;;8.77;;
16994;SDS011;8614;48.522;9.206;2023-10-09T11:49:07;13.63;;;8.63;;
16994;SDS011;8614;48.522;9.206;2023-10-09T11:52:04;12.30;;;8.47;;
16994;SDS011;8614;48.522;9.206;2023-10-09T11:54:49;12.53;;;8.30;;
16994;SDS011;8614;48.522;9.206;2023-10-09T11:57:16;13.30;;;8.33;;
16994;SDS011;8614;48.522;9.206;2023-10-09T11:59:43;9.90;;;8.00;;
16994;SDS011;8614;48.522;9.206;2023-10-09T12:02:11;11.27;;;8.27;;
16994;SDS011;8614;48.522;9.206;2023-10-09T12:04:38;10.00;;;6.47;;
16994;SDS011;8614;48.522;9.206;2023-10-09T12:07:07;10.53;;;4.80;;
16994;SDS011;8614;48.522;9.206;2023-10-09T12:09:37;12.20;;;4.60;;
16994;SDS011;8614;48.522;9.206;2023-10-09T12:12:05;15.40;;;5.40;;
16994;SDS011;8614;48.522;9.206;2023-10-09T12:14:34;11.43;;;8.43;;
16994;SDS011;8614;48.522;9.206;2023-10-09T12:17:08;10.97;;;8.40;;
16994;SDS011;8614;48.522;9.206;2023-10-09T12:19:37;12.27;;;4.27;;
16994;SDS011;8614;48.522;9.206;2023-10-09T12:22:05;9.87;;;4.60;;
16994;SDS011;8614;48.522;9.206;2023-10-09T12:24:36;13.87;;;8.27;;
16994;SDS011;8614;48.522;9.206;2023-10-09T12:27:05;11.57;;;4.67;;
16994;SDS011;8614;48.522;9.206;2023-10-09T12:29:36;7.37;;;4.40;;
16994;SDS011;8614;48.522;9.206;2023-10-09T12:32:03;9.13;;;4.77;;
16994;SDS011;8614;48.522;9.206;2023-10-09T12:34:37;9.93;;;6.73;;
16994;SDS011;8614;48.522;9.206;2023-10-09T12:37:04;10.77;;;6.83;;
16994;SDS011;8614;48.522;9.206;2023-10-09T12:39:31;13.10;;;7.50;;
16994;SDS011;8614;48.522;9.206;2023-10-09T12:41:59;9.90;;;8.40;;
16994;SDS011;8614;48.522;9.206;2023-10-09T12:44:31;11.97;;;9.43;;
16994;SDS011;8614;48.522;9.206;2023-10-09T12:47:04;16.27;;;9.17;;
16994;SDS011;8614;48.522;9.206;2023-10-09T12:49:31;11.70;;;9.07;;
16994;SDS011;8614;48.522;9.206;2023-10-09T12:51:59;9.13;;;7.23;;
16994;SDS011;8614;48.522;9.206;2023-10-09T12:54:26;8.00;;;6.87;;
16994;SDS011;8614;48.522;9.206;2023-10-09T12:56:53;10.87;;;8.10;;
16994;SDS011;8614;48.522;9.206;2023-10-09T12:59:20;9.80;;;7.77;;
16994;SDS011;8614;48.522;9.206;2023-10-09T13:01:49;9.47;;;7.87;;
16994;SDS011;8614;48.522;9.206;2023-10-09T13:04:22;11.47;;;8.43;;
16994;SDS011;8614;48.522;9.206;2023-10-09T13:06:57;12.07;;;7.80;;
16994;SDS011;8614;48.522;9.206;2023-10-09T13:09:27;10.33;;;7.93;;
16994;SDS011;8614;48.522;9.206;2023-10-09T13:12:00;10.37;;;8.50;;
16994;SDS011;8614;48.522;9.206;2023-10-09T13:14:27;11.03;;;8.10;;
16994;SDS011;8614;48.522;9.206;2023-10-09T13:16:54;10.77;;;7.77;;
16994;SDS011;8614;48.522;9.206;2023-10-09T13:19:21;10.77;;;4.47;;
16994;SDS011;8614;48.522;9.206;2023-10-09T13:21:49;12.30;;;6.90;;
16994;SDS011;8614;48.522;9.206;2023-10-09T13:24:17;14.27;;;8.70;;
16994;SDS011;8614;48.522;9.206;2023-10-09T13:26:49;14.10;;;6.53;;
16994;SDS011;8614;48.522;9.206;2023-10-09T13:29:18;15.57;;;9.43;;
16994;SDS011;8614;48.522;9.206;2023-10-09T13:31:47;13.17;;;6.07;;
16994;SDS011;8614;48.522;9.206;2023-10-09T13:34:17;17.40;;;5.63;;
16994;SDS011;8614;48.522;9.206;2023-10-09T13:36:44;12.17;;;5.40;;
16994;SDS011;8614;48.522;9.206;2023-10-09T13:39:15;15.53;;;5.87;;
16994;SDS011;8614;48.522;9.206;2023-10-09T13:41:54;18.73;;;5.93;;
16994;SDS011;8614;48.522;9.206;2023-10-09T13:44:24;15.47;;;5.30;;
16994;SDS011;8614;48.522;9.206;2023-10-09T13:46:54;12.03;;;4.90;;
16994;SDS011;8614;48.522;9.206;2023-10-09T13:49:21;10.37;;;4.63;;
16994;SDS011;8614;48.522;9.206;2023-10-09T13:51:48;12.03;;;4.93;;
16994;SDS011;8614;48.522;9.206;2023-10-09T13:54:16;10.00;;;5.20;;
16994;SDS011;8614;48.522;9.206;2023-10-09T13:56:46;15.43;;;7.10;;
16994;SDS011;8614;48.522;9.206;2023-10-09T13:59:19;11.47;;;5.17;;
16994;SDS011;8614;48.522;9.206;2023-10-09T14:01:47;9.93;;;4.67;;
16994;SDS011;8614;48.522;9.206;2023-10-09T14:04:14;11.77;;;5.47;;
16994;SDS011;8614;48.522;9.206;2023-10-09T14:06:44;12.50;;;5.23;;
16994;SDS011;8614;48.522;9.206;2023-10-09T14:09:12;13.67;;;5.50;;
16994;SDS011;8614;48.522;9.206;2023-10-09T14:11:54;13.83;;;5.63;;
16994;SDS011;8614;48.522;9.206;2023-10-09T14:14:33;11.00;;;4.97;;
16994;SDS011;8614;48.522;9.206;2023-10-09T14:17:03;12.47;;;5.00;;
16994;SDS011;8614;48.522;9.206;2023-10-09T14:19:37;9.77;;;4.87;;
16994;SDS011;8614;48.522;9.206;2023-10-09T14:22:04;12.03;;;4.87;;
16994;SDS011;8614;48.522;9.206;2023-10-09T14:24:32;10.67;;;4.97;;
16994;SDS011;8614;48.522;9.206;2023-10-09T14:26:59;15.67;;;8.67;;
16994;SDS011;8614;48.522;9.206;2023-10-09T14:29:29;13.17;;;8.27;;
16994;SDS011;8614;48.522;9.206;2023-10-09T14:31:58;11.77;;;9.00;;
16994;SDS011;8614;48.522;9.206;2023-10-09T14:34:28;16.30;;;9.07;;
16994;SDS011;8614;48.522;9.206;2023-10-09T14:36:58;11.47;;;8.73;;
16994;SDS011;8614;48.522;9.206;2023-10-09T14:39:26;12.00;;;9.80;;
16994;SDS011;8614;48.522;9.206;2023-10-09T14:41:54;14.73;;;9.27;;
16994;SDS011;8614;48.522;9.206;2023-10-09T14:44:23;9.60;;;8.27;;
16994;SDS011;8614;48.522;9.206;2023-10-09T14:46:53;12.43;;;7.77;;
16994;SDS011;8614;48.522;9.206;2023-10-09T14:49:22;10.53;;;7.77;;
16994;SDS011;8614;48.522;9.206;2023-10-09T14:51:49;17.80;;;9.10;;
16994;SDS011;8614;48.522;9.206;2023-10-09T14:54:16;13.00;;;7.53;;
16994;SDS011;8614;48.522;9.206;2023-10-09T14:56:44;11.87;;;7.70;;
16994;SDS011;8614;48.522;9.206;2023-10-09T14:59:11;13.30;;;7.73;;
16994;SDS011;8614;48.522;9.206;2023-10-09T15:01:38;12.27;;;7.03;;
16994;SDS011;8614;48.522;9.206;2023-10-09T15:04:05;9.67;;;7.00;;
16994;SDS011;8614;48.522;9.206;2023-10-09T15:06:33;16.17;;;6.53;;
16994;SDS011;8614;48.522;9.206;2023-10-09T15:09:03;15.27;;;7.13;;
16994;SDS011;8614;48.522;9.206;2023-10-09T15:11:34;15.33;;;7.67;;
16994;SDS011;8614;48.522;9.206;2023-10-09T15:14:04;11.33;;;6.47;;
16994;SDS011;8614;48.522;9.206;2023-10-09T15:16:31;10.10;;;6.27;;
16994;SDS011;8614;48.522;9.206;2023-10-09T15:18:58;13.43;;;6.23;;
16994;SDS011;8614;48.522;9.206;2023-10-09T15:21:31;8.40;;;5.77;;
16994;SDS011;8614;48.522;9.206;2023-10-09T15:23:59;11.57;;;5.37;;
16994;SDS011;8614;48.522;9.206;2023-10-09T15:26:26;11.30;;;5.30;;
16994;SDS011;8614;48.522;9.206;2023-10-09T15:28:59;11.43;;;5.00;;
16994;SDS011;8614;48.522;9.206;2023-10-09T15:31:28;12.93;;;9.03;;
16994;SDS011;8614;48.522;9.206;2023-10-09T15:33:57;13.00;;;8.80;;
16994;SDS011;8614;48.522;9.206;2023-10-09T15:36:24;15.63;;;9.50;;
16994;SDS011;8614;48.522;9.206;2023-10-09T15:38:54;13.63;;;9.20;;
16994;SDS011;8614;48.522;9.206;2023-10-09T15:41:26;11.23;;;9.63;;
16994;SDS011;8614;48.522;9.206;2023-10-09T15:43:55;7.10;;;4.20;;
16994;SDS011;8614;48.522;9.206;2023-10-09T15:46:23;6.93;;;4.00;;